Latest Weather Observations for Badgerys Creek

IDN60901

Issued at 10:12 pm EDT Wednesday 4 March 2015 (issued every 10 minutes, with the page automatically refreshed every 10 minutes)

About weather observations | Map of Sydney area stations | Latest observations for Sydney area | Other Formats
Station Details ID: 067108 Name: BADGERYS CREEK AWS Lat: -33.90 Lon: 150.73 Height: 81.2 m
Data from the previous 72 hours. | See also: Recent months at Badgerys Creek
Date/Time
EDT
Tmp

°C
App
Tmp
°C
Dew
Point
°C
Rel
Hum
%
Delta-T

°C
Wind Press
QNH
hPa
Press
MSL
hPa
Rain
since
9 am
mm
Dir
 
Spd
km/h
Gust
km/h
Spd
kts
Gust
kts
04/10:00pm 22.2 25.7 19.6 85 1.7 CALM 0 2 0 1 1009.0 1008.7 0.0
04/09:30pm 22.1 25.5 19.3 84 1.8 CALM 0 4 0 2 1009.3 1009.0 0.0
04/09:00pm 23.4 26.8 19.3 78 2.6 CALM 0 2 0 1 1009.0 1008.7 0.0
04/08:30pm 24.2 26.5 19.5 75 3.0 E 6 9 3 5 1008.6 1008.3 0.0
04/08:00pm 25.1 27.0 19.7 72 3.5 E 9 13 5 7 1008.3 1008.0 0.0
04/07:30pm 26.1 27.4 19.2 65 4.4 ENE 11 15 6 8 1008.0 1007.7 0.0
04/07:00pm 27.5 28.3 19.0 59 5.5 ENE 13 20 7 11 1007.8 1007.5 0.0
04/06:30pm 28.3 28.8 19.2 57 5.9 E 15 20 8 11 1007.7 1007.4 0.0
04/06:00pm 29.5 30.4 19.2 54 6.7 ENE 13 20 7 11 1007.7 1007.4 0.0
04/05:30pm 30.0 31.1 18.8 51 7.3 ENE 11 17 6 9 1007.8 1007.5 0.0
04/05:00pm 30.3 31.6 18.4 49 7.7 ENE 9 13 5 7 1008.0 1007.7 0.0
04/04:30pm 30.2 31.4 18.3 49 7.7 ENE 9 17 5 9 1008.4 1008.1 0.0
04/04:00pm 30.1 32.0 18.5 49 7.5 ESE 6 13 3 7 1008.7 1008.4 0.0
04/03:30pm 29.8 31.0 18.3 50 7.4 ENE 9 19 5 10 1009.1 1008.8 0.0
04/03:00pm 29.3 30.8 18.1 51 7.2 ESE 7 13 4 7 1009.6 1009.3 0.0
04/02:30pm 28.8 30.9 18.9 55 6.4 SSE 6 9 3 5 1010.1 1009.8 0.0
04/02:00pm 27.9 29.7 18.3 56 6.1 SSE 6 13 3 7 1010.5 1010.2 0.0
04/01:30pm 28.1 29.5 17.9 54 6.5 N 7 13 4 7 1011.1 1010.8 0.0
04/01:00pm 27.7 29.4 18.4 57 6.0 NNW 7 13 4 7 1011.6 1011.3 0.0
04/12:30pm 26.8 28.7 18.9 62 5.1 N 7 13 4 7 1012.1 1011.8 0.0
04/12:00pm 27.0 29.8 19.6 64 4.8 NNW 4 11 2 6 1012.7 1012.4 0.0
04/11:30am 25.9 28.5 19.3 67 4.3 NE 4 9 2 5 1013.4 1013.1 0.0
04/11:00am 25.1 28.3 19.7 72 3.5 SSE 2 6 1 3 1013.8 1013.5 0.0
04/10:30am 23.7 26.2 19.0 75 3.0 SW 4 9 2 5 1014.0 1013.7 0.0
04/10:00am 23.8 26.3 19.1 75 3.0 SW 4 7 2 4 1013.9 1013.6 0.0
04/09:30am 23.6 26.4 18.9 75 3.0 SW 2 7 1 4 1013.9 1013.6 0.0
04/09:00am 22.6 24.9 18.6 78 2.5 SW 4 6 2 3 1013.9 1013.6 0.0
04/08:30am 22.2 24.2 18.8 81 2.2 SW 6 7 3 4 1013.6 1013.3 0.0
04/08:00am 20.9 23.4 19.0 89 1.2 SW 4 6 2 3 1013.4 1013.1 0.0
04/07:30am 19.6 21.4 18.4 93 0.7 SW 6 7 3 4 1013.3 1013.0 0.0
04/07:00am 19.8 22.0 18.3 91 0.9 SW 4 6 2 3 1013.0 1012.7 0.0
04/06:30am 20.0 21.8 18.3 90 1.1 SW 6 7 3 4 1012.9 1012.6 0.0
04/06:00am 20.0 21.8 18.3 90 1.1 SW 6 6 3 3 1012.9 1012.6 0.0
04/05:30am 20.0 21.7 18.1 89 1.2 SW 6 7 3 4 1012.7 1012.4 0.0
04/05:00am 20.1 22.2 18.2 89 1.2 SW 4 7 2 4 1012.8 1012.5 0.0
04/04:30am 20.0 21.7 18.1 89 1.2 SW 6 7 3 4 1012.8 1012.5 0.0
04/04:00am 20.1 21.8 18.1 88 1.2 WSW 6 7 3 4 1012.8 1012.5 0.0
04/03:30am 20.1 21.6 18.1 88 1.2 WSW 7 9 4 5 1013.0 1012.7 0.0
04/03:00am 20.1 21.6 18.1 88 1.2 SW 7 9 4 5 1013.3 1013.0 0.0
04/02:30am 20.0 21.5 18.0 88 1.2 SW 7 9 4 5 1013.7 1013.4 0.0
04/02:00am 19.9 21.4 17.7 87 1.4 SW 6 7 3 4 1013.8 1013.5 0.0
04/01:30am 19.8 21.4 17.9 89 1.2 SSW 6 6 3 3 1014.1 1013.8 0.0
04/01:00am 19.5 21.0 17.6 89 1.2 SSW 6 6 3 3 1014.3 1014.0 0.0
04/12:30am 19.8 21.3 17.6 87 1.4 SSW 6 6 3 3 1014.4 1014.1 0.0
04/12:00am 20.1 21.6 17.5 85 1.6 SSW 6 7 3 4 1014.4 1014.1 0.0
 
Date/Time
EDT
Tmp

°C
App
Tmp
°C
Dew
Point
°C
Rel
Hum
%
Delta-T

°C
Wind Press
QNH
hPa
Press
MSL
hPa
Rain
since
9 am
mm
Dir
 
Spd
km/h
Gust
km/h
Spd
kts
Gust
kts
03/11:30pm 20.8 22.2 17.4 81 2.1 SSW 6 7 3 4 1014.6 1014.3 0.0
03/11:00pm 21.1 22.4 17.5 80 2.2 S 7 7 4 4 1014.8 1014.5 0.0
03/10:30pm 21.7 23.2 17.5 77 2.6 S 6 9 3 5 1014.7 1014.4 0.0
03/10:00pm 21.7 23.2 17.5 77 2.6 S 6 9 3 5 1015.0 1014.7 0.0
03/09:30pm 21.9 23.7 17.5 76 2.7 S 4 6 2 3 1014.9 1014.6 0.0
03/09:00pm 22.0 23.3 17.2 74 3.0 SSE 6 7 3 4 1014.7 1014.4 0.0
03/08:30pm 22.3 23.4 17.0 72 3.3 S 7 9 4 5 1014.4 1014.1 0.0
03/08:00pm 22.4 23.6 16.9 71 3.4 SSE 6 7 3 4 1014.1 1013.8 0.0
03/07:30pm 22.9 24.3 16.4 67 4.0 ESE 4 6 2 3 1013.8 1013.5 0.0
03/07:00pm 23.4 24.0 16.7 66 4.1 ESE 9 13 5 7 1013.6 1013.3 0.0
03/06:30pm 23.8 24.3 16.6 64 4.4 SE 9 15 5 8 1013.3 1013.0 0.0
03/06:00pm 24.1 24.2 16.6 63 4.6 ESE 11 20 6 11 1013.0 1012.7 0.0
03/05:30pm 24.3 23.7 16.6 62 4.7 ESE 15 20 8 11 1012.5 1012.2 0.0
03/05:00pm 25.1 25.1 16.3 58 5.4 ESE 11 17 6 9 1012.4 1012.1 0.0
03/04:30pm 26.0 25.0 16.5 55 5.9 ESE 17 24 9 13 1012.0 1011.7 0.0
03/04:00pm 28.4 29.0 16.7 49 7.3 E 9 20 5 11 1012.0 1011.7 0.0
03/03:30pm 29.4 30.7 16.2 44 8.2 NE 4 6 2 3 1012.1 1011.8 0.0
03/03:00pm 29.1 29.4 16.0 45 8.1 NE 9 17 5 9 1012.3 1012.0 0.0
03/02:30pm 29.4 30.3 16.2 44 8.2 N 6 13 3 7 1012.6 1012.3 0.0
03/02:00pm 28.5 28.8 16.1 47 7.7 NE 9 19 5 10 1013.0 1012.7 0.0
03/01:30pm 27.5 27.7 15.8 48 7.2 N 9 17 5 9 1013.4 1013.1 0.0
03/01:00pm 27.4 27.7 16.1 50 7.0 N 9 15 5 8 1013.8 1013.5 0.0
03/12:30pm 26.0 26.3 15.1 51 6.6 NNE 7 17 4 9 1014.5 1014.2 0.0
03/12:00pm 25.9 26.0 15.6 53 6.3 N 9 15 5 8 1015.1 1014.8 0.0
03/11:30am 25.2 24.7 14.9 52 6.2 NNE 11 19 6 10 1015.5 1015.2 0.0
03/11:00am 24.2 22.0 14.3 54 5.9 NNE 19 24 10 13 1015.7 1015.5 0.0
03/10:30am 23.4 22.1 13.8 54 5.6 N 13 19 7 10 1016.1 1015.9 0.0
03/10:00am 22.1 21.9 14.7 63 4.4 NNE 9 17 5 9 1016.1 1015.9 0.0
03/09:30am 20.6 21.4 14.9 70 3.4 NE 4 7 2 4 1016.3 1016.1 0.0
03/09:00am 19.0 19.6 15.3 79 2.2 N 6 7 3 4 1016.3 1016.1 0.2
03/08:30am 17.5 18.6 15.7 89 1.1 NNE 4 6 2 3 1016.0 1015.8 0.2
03/08:00am 16.1 17.0 15.1 94 0.6 NNE 4 4 2 2 1015.7 1015.5 0.2
03/07:30am 15.2 16.8 15.0 99 0.1 CALM 0 0 0 0 1015.6 1015.3 0.2
03/07:00am 14.1 15.2 13.6 97 0.3 CALM 0 0 0 0 1015.5 1015.2 0.2
03/06:30am 14.2 15.4 13.7 97 0.3 CALM 0 0 0 0 1015.3 1015.0 0.2
03/06:00am 14.4 15.5 13.6 95 0.4 CALM 0 0 0 0 1015.0 1014.7 0.2
03/05:30am 14.7 15.2 14.1 96 0.3 NNE 4 4 2 2 1015.2 1014.9 0.2
03/05:00am 14.4 15.1 13.3 93 0.6 NNE 2 4 1 2 1015.3 1015.0 0.2
03/04:30am 15.3 15.8 14.0 92 0.7 NNE 4 6 2 3 1015.1 1014.8 0.2
03/04:00am 15.5 16.9 14.4 93 0.6 CALM 0 0 0 0 1015.4 1015.1 0.2
03/03:30am 16.1 17.5 14.5 90 0.9 CALM 0 0 0 0 1015.4 1015.1 0.2
03/03:00am 16.6 18.0 14.4 87 1.3 CALM 0 0 0 0 1015.8 1015.6 0.2
03/02:30am 17.2 18.8 15.0 87 1.3 CALM 0 0 0 0 1016.1 1015.9 0.2
03/02:00am 18.3 19.2 15.2 82 1.8 NNE 4 6 2 3 1016.4 1016.2 0.2
03/01:30am 19.0 20.7 15.3 79 2.2 CALM 0 2 0 1 1017.1 1016.9 0.2
03/01:00am 19.1 19.7 15.2 78 2.3 NNE 6 6 3 3 1017.3 1017.1 0.2
03/12:30am 19.3 20.4 15.6 79 2.2 NNE 4 4 2 2 1017.8 1017.5 0.2
03/12:00am 19.6 20.8 14.8 74 2.8 NNE 2 4 1 2 1018.1 1017.8 0.2
 
Date/Time
EDT
Tmp

°C
App
Tmp
°C
Dew
Point
°C
Rel
Hum
%
Delta-T

°C
Wind Press
QNH
hPa
Press
MSL
hPa
Rain
since
9 am
mm
Dir
 
Spd
km/h
Gust
km/h
Spd
kts
Gust
kts
02/11:30pm 19.6 20.4 14.8 74 2.8 NNE 4 4 2 2 1018.1 1017.8 0.2
02/11:00pm 19.6 20.0 14.8 74 2.8 NNE 6 6 3 3 1018.0 1017.7 0.2
02/10:30pm 19.8 20.6 14.8 73 2.9 NNE 4 6 2 3 1018.1 1017.8 0.2
02/10:00pm 19.8 20.0 14.2 70 3.2 NNE 6 9 3 5 1018.1 1017.8 0.2
02/09:30pm 20.2 20.1 13.9 67 3.6 NE 7 9 4 5 1018.0 1017.7 0.2
02/09:00pm 20.4 20.3 13.8 66 3.8 NE 7 11 4 6 1017.9 1017.6 0.2
02/08:30pm 20.7 20.7 14.1 66 3.8 NE 7 9 4 5 1017.9 1017.6 0.2
02/08:00pm 20.8 21.1 14.5 67 3.7 NE 6 9 3 5 1017.8 1017.5 0.2
02/07:30pm 21.0 21.1 14.4 66 3.9 NE 7 9 4 5 1017.3 1017.1 0.2
02/07:00pm 21.5 21.2 14.4 64 4.2 ENE 9 13 5 7 1017.0 1016.8 0.2
02/06:30pm 21.6 21.7 14.5 64 4.2 NE 7 9 4 5 1017.0 1016.8 0.2
02/06:00pm 21.8 20.5 14.7 64 4.2 ENE 15 19 8 10 1016.9 1016.7 0.2
02/05:30pm 22.4 22.2 15.7 66 4.0 E 11 15 6 8 1016.7 1016.5 0.2
02/05:00pm 22.3 21.7 15.6 66 4.0 E 13 20 7 11 1016.8 1016.6 0.2
02/04:30pm 22.0 21.8 15.6 67 3.8 E 11 15 6 8 1016.8 1016.6 0.2
02/04:00pm 21.7 20.7 15.5 68 3.7 ENE 15 20 8 11 1016.9 1016.7 0.2
02/03:30pm 22.5 22.2 15.4 64 4.3 E 11 17 6 9 1017.1 1016.9 0.2
02/03:00pm 22.2 22.2 15.1 64 4.2 ESE 9 13 5 7 1017.5 1017.2 0.2
02/02:30pm 22.8 23.3 15.6 64 4.3 E 7 17 4 9 1017.8 1017.5 0.2
02/02:00pm 22.2 22.6 15.3 65 4.1 ESE 7 11 4 6 1018.1 1017.8 0.2
02/01:30pm 22.0 21.9 14.9 64 4.2 E 9 13 5 7 1018.6 1018.3 0.2
02/01:00pm 22.2 22.5 15.1 64 4.2 SE 7 13 4 7 1018.8 1018.5 0.2
02/12:30pm 22.4 22.1 14.5 61 4.7 SSE 9 17 5 9 1019.0 1018.7 0.2
02/12:00pm 22.5 22.8 14.6 61 4.7 SE 6 11 3 6 1019.2 1018.9 0.2
02/11:30am 21.9 22.0 14.0 61 4.6 SSE 6 9 3 5 1019.6 1019.3 0.2
02/11:00am 21.4 21.7 14.6 65 4.0 SSW 6 13 3 7 1019.5 1019.2 0.2
02/10:30am 20.8 20.8 14.2 66 3.8 SW 7 13 4 7 1019.5 1019.2 0.2
02/10:00am 20.0 18.5 13.2 65 3.9 SW 13 17 7 9 1019.5 1019.2 0.0
02/09:30am 19.3 17.8 13.0 67 3.6 SW 13 19 7 10 1019.4 1019.1 0.0
02/09:00am 18.9 17.3 12.9 68 3.4 SSW 13 20 7 11 1019.2 1018.9 8.4
02/08:30am 18.1 16.7 12.3 69 3.2 SW 11 17 6 9 1018.9 1018.6 8.4
02/08:00am 17.5 16.2 12.6 73 2.7 SW 11 15 6 8 1019.0 1018.7 8.4
02/07:30am 17.2 15.4 12.1 72 2.8 SW 13 19 7 10 1018.8 1018.5 8.4
02/07:00am 16.4 14.9 11.8 74 2.5 SW 11 13 6 7 1018.4 1018.1 8.4
02/06:30am 16.5 15.2 11.4 72 2.8 SW 9 13 5 7 1017.9 1017.6 8.4
02/06:00am 17.2 15.6 11.7 70 3.0 SW 11 15 6 8 1017.5 1017.2 8.4
02/05:30am 17.6 15.6 11.6 68 3.3 SW 13 19 7 10 1017.5 1017.2 8.4
02/05:00am 17.4 15.6 12.1 71 2.9 SW 13 17 7 9 1017.5 1017.2 8.4
02/04:30am 17.5 15.3 12.2 71 2.9 SW 15 20 8 11 1016.9 1016.7 8.4
02/04:00am 17.7 16.0 12.4 71 2.9 SW 13 15 7 8 1016.9 1016.7 8.4
02/03:30am 18.0 16.2 12.2 69 3.2 SW 13 17 7 9 1017.2 1017.0 8.4
02/03:00am 18.0 16.8 12.7 71 3.0 SW 11 17 6 9 1017.7 1017.4 8.4
02/02:30am 18.2 16.9 12.6 70 3.1 SW 11 15 6 8 1017.7 1017.4 8.4
02/02:00am 18.5 17.2 12.5 68 3.4 SW 11 17 6 9 1017.5 1017.2 8.4
02/01:30am 18.7 17.5 12.7 68 3.4 SSW 11 15 6 8 1017.6 1017.3 8.4
02/01:00am 18.9 17.6 12.6 67 3.5 S 11 19 6 10 1017.6 1017.3 8.4
02/12:30am 19.1 17.9 12.8 67 3.6 SSW 11 17 6 9 1017.7 1017.4 8.4
02/12:00am 19.3 17.7 12.8 66 3.7 S 13 19 7 10 1017.5 1017.2 8.4
 
Date/Time
EDT
Tmp

°C
App
Tmp
°C
Dew
Point
°C
Rel
Hum
%
Delta-T

°C
Wind Press
QNH
hPa
Press
MSL
hPa
Rain
since
9 am
mm
Dir
 
Spd
km/h
Gust
km/h
Spd
kts
Gust
kts
01/11:30pm 19.5 18.4 13.2 67 3.6 S 11 19 6 10 1017.3 1017.1 8.4
01/11:00pm 19.5 19.0 13.9 70 3.2 SSW 9 13 5 7 1017.2 1017.0 8.4
01/10:30pm 19.6 18.4 14.0 70 3.2 SSW 13 20 7 11 1016.7 1016.5 8.4

Latest Capital City Observations: Canberra | Sydney | Melbourne | Brisbane | Adelaide | Perth | Hobart | Darwin

Other Formats:

Comma delimited format used in spreadsheet applications
http://www.bom.gov.au/fwo/IDN60901/IDN60901.94752.axf

JavaScript Object Notation format (JSON) in row-major order
http://www.bom.gov.au/fwo/IDN60901/IDN60901.94752.json